createdAt,value
2018-01-21T00:00:26.207Z,99.90
2018-01-21T00:01:30.469Z,99.90
2018-01-21T00:02:34.715Z,99.90
2018-01-21T00:03:38.943Z,99.90
2018-01-21T00:04:43.152Z,99.90
2018-01-21T00:05:47.383Z,99.90
2018-01-21T00:06:51.597Z,99.90
2018-01-21T00:07:55.961Z,99.90
2018-01-21T00:09:00.237Z,99.90
2018-01-21T00:10:04.466Z,99.90
2018-01-21T00:11:09.425Z,99.90
2018-01-21T00:12:13.621Z,99.90
2018-01-21T00:13:17.826Z,99.90
2018-01-21T00:14:22.128Z,99.90
2018-01-21T00:15:26.344Z,99.90
2018-01-21T00:16:30.569Z,99.90
2018-01-21T00:17:34.863Z,99.90
2018-01-21T00:18:39.052Z,99.90
2018-01-21T00:19:43.290Z,99.90
2018-01-21T00:20:47.488Z,99.90
2018-01-21T00:21:52.422Z,99.90
2018-01-21T00:22:57.364Z,99.90
2018-01-21T00:24:01.572Z,99.90
2018-01-21T00:25:05.825Z,99.90
2018-01-21T00:26:10.039Z,99.90
2018-01-21T00:27:14.222Z,99.90
2018-01-21T00:28:18.400Z,99.90
2018-01-21T00:29:23.538Z,99.90
2018-01-21T00:30:27.795Z,99.90
2018-01-21T00:31:32.019Z,99.90
2018-01-21T00:32:36.254Z,99.90
2018-01-21T00:33:40.474Z,99.90
2018-01-21T00:34:45.464Z,99.90
2018-01-21T00:35:49.798Z,99.90
2018-01-21T00:36:54.138Z,99.90
2018-01-21T00:37:58.369Z,99.90
2018-01-21T00:39:02.608Z,99.90
2018-01-21T00:40:06.976Z,99.90
2018-01-21T00:41:11.297Z,99.90
2018-01-21T00:42:15.505Z,99.90
2018-01-21T00:43:19.695Z,99.90
2018-01-21T00:44:23.901Z,99.90
2018-01-21T00:45:28.884Z,99.90
2018-01-21T00:46:33.091Z,99.90
2018-01-21T00:47:37.334Z,99.90
2018-01-21T00:48:41.578Z,99.90
2018-01-21T00:49:46.618Z,99.90
2018-01-21T00:50:50.834Z,99.90
2018-01-21T00:51:55.060Z,99.90
2018-01-21T00:52:59.349Z,99.90
2018-01-21T00:54:03.540Z,99.90
2018-01-21T00:55:08.478Z,99.90
2018-01-21T00:56:12.671Z,99.90
2018-01-21T00:57:16.884Z,99.90
2018-01-21T00:58:21.884Z,99.90
2018-01-21T00:59:26.075Z,99.90
2018-01-21T01:00:30.267Z,99.90
2018-01-21T01:01:34.485Z,99.90
2018-01-21T01:02:38.686Z,99.90
2018-01-21T01:03:42.926Z,99.90
2018-01-21T01:04:47.153Z,99.90
2018-01-21T01:05:51.349Z,99.90
2018-01-21T01:06:55.633Z,99.90
2018-01-21T01:07:59.850Z,99.90
2018-01-21T01:09:04.153Z,99.90
2018-01-21T01:10:08.363Z,99.90
2018-01-21T01:11:12.544Z,99.90
2018-01-21T01:12:17.486Z,99.90
2018-01-21T01:13:22.477Z,99.90
2018-01-21T01:14:27.073Z,99.90
2018-01-21T01:15:31.361Z,99.90
2018-01-21T01:16:35.547Z,99.90
2018-01-21T01:17:40.499Z,99.90
2018-01-21T01:18:44.685Z,99.90
2018-01-21T01:19:49.718Z,99.90
2018-01-21T01:20:54.721Z,99.90
2018-01-21T01:21:58.907Z,99.90
2018-01-21T01:23:03.107Z,99.90
2018-01-21T01:24:07.298Z,99.90
2018-01-21T01:25:11.608Z,99.90
2018-01-21T01:26:15.930Z,99.90
2018-01-21T01:27:20.197Z,99.90
2018-01-21T01:28:24.422Z,99.90
2018-01-21T01:29:29.388Z,99.90
2018-01-21T01:30:33.630Z,99.90
2018-01-21T01:31:37.895Z,99.90
2018-01-21T01:32:42.182Z,99.90
2018-01-21T01:33:47.132Z,99.90
2018-01-21T01:34:52.109Z,99.90
2018-01-21T01:35:56.382Z,99.90
2018-01-21T01:37:00.593Z,99.90
2018-01-21T01:38:04.826Z,99.90
2018-01-21T01:39:09.058Z,99.90
2018-01-21T01:40:13.235Z,99.90
2018-01-21T01:41:17.448Z,99.90
2018-01-21T01:42:21.684Z,99.90
2018-01-21T01:43:26.066Z,99.90
2018-01-21T01:44:30.289Z,99.90
2018-01-21T01:45:34.480Z,99.90
2018-01-21T01:46:38.698Z,99.90
2018-01-21T01:47:42.977Z,99.90
2018-01-21T01:48:55.892Z,99.90
2018-01-21T01:50:00.873Z,99.90
2018-01-21T01:51:05.047Z,99.90
2018-01-21T01:52:10.026Z,99.90
2018-01-21T01:53:14.305Z,99.90
2018-01-21T01:54:18.527Z,99.90
2018-01-21T01:55:22.745Z,99.90
2018-01-21T01:56:26.923Z,99.90
2018-01-21T01:57:31.143Z,99.90
2018-01-21T01:58:35.380Z,99.90
2018-01-21T01:59:39.564Z,99.90
2018-01-21T02:00:43.879Z,99.90
2018-01-21T02:01:48.441Z,99.90
2018-01-21T02:02:52.663Z,99.90
2018-01-21T02:03:56.937Z,99.90
2018-01-21T02:05:01.201Z,99.90
2018-01-21T02:06:06.190Z,99.90
2018-01-21T02:07:10.374Z,99.90
2018-01-21T02:08:14.576Z,99.90
2018-01-21T02:09:19.167Z,99.90
2018-01-21T02:10:24.199Z,99.90
2018-01-21T02:11:29.151Z,99.90
2018-01-21T02:12:33.364Z,99.90
2018-01-21T02:13:37.568Z,99.90
2018-01-21T02:14:41.795Z,99.90
2018-01-21T02:15:46.013Z,99.90
2018-01-21T02:16:50.190Z,99.90
2018-01-21T02:17:55.160Z,99.90
2018-01-21T02:18:59.373Z,99.90
2018-01-21T02:20:03.672Z,99.90
2018-01-21T02:21:07.922Z,99.90
2018-01-21T02:22:12.243Z,99.90
2018-01-21T02:23:17.964Z,99.90
2018-01-21T02:24:22.183Z,99.90
2018-01-21T02:25:26.453Z,99.90
2018-01-21T02:26:30.623Z,99.90
2018-01-21T02:27:34.827Z,99.90
2018-01-21T02:28:39.045Z,99.90
2018-01-21T02:29:43.277Z,99.90
2018-01-21T02:30:48.309Z,99.90
2018-01-21T02:31:53.300Z,99.90
2018-01-21T02:32:57.512Z,99.90
2018-01-21T02:34:01.729Z,99.90
2018-01-21T02:35:05.906Z,99.90
2018-01-21T02:36:10.137Z,99.90
2018-01-21T02:37:14.350Z,99.90
2018-01-21T02:38:18.531Z,99.90
2018-01-21T02:39:22.752Z,99.90
2018-01-21T02:40:26.959Z,99.90
2018-01-21T02:41:31.216Z,99.90
2018-01-21T02:42:35.433Z,99.90
2018-01-21T02:43:40.413Z,99.90
2018-01-21T02:44:44.599Z,99.90
2018-01-21T02:45:48.855Z,99.90
2018-01-21T02:46:53.164Z,99.90
2018-01-21T02:47:57.347Z,99.90
2018-01-21T02:49:01.553Z,99.90
2018-01-21T02:50:05.736Z,99.90
2018-01-21T02:51:10.689Z,99.90
2018-01-21T02:52:14.908Z,99.90
2018-01-21T02:53:19.222Z,99.90
2018-01-21T02:54:23.409Z,99.90
2018-01-21T02:55:28.385Z,99.90
2018-01-21T02:56:32.610Z,99.90
2018-01-21T02:57:37.628Z,99.90
2018-01-21T02:58:42.567Z,99.90
2018-01-21T02:59:46.773Z,99.90
2018-01-21T03:00:51.017Z,99.90
2018-01-21T03:01:56.043Z,99.90
2018-01-21T03:03:01.069Z,99.90
2018-01-21T03:04:06.123Z,99.90
2018-01-21T03:05:10.337Z,99.90
2018-01-21T03:06:14.515Z,99.90
2018-01-21T03:07:18.767Z,99.90
2018-01-21T03:08:23.384Z,99.90
2018-01-21T03:09:27.554Z,99.90
2018-01-21T03:10:31.812Z,99.90
2018-01-21T03:11:36.113Z,99.90
2018-01-21T03:12:40.302Z,99.90
2018-01-21T03:13:45.330Z,99.90
2018-01-21T03:14:50.284Z,99.90
2018-01-21T03:15:54.516Z,99.90
2018-01-21T03:16:58.737Z,99.90
2018-01-21T03:18:02.948Z,99.90
2018-01-21T03:19:07.190Z,99.90
2018-01-21T03:20:11.418Z,99.90
2018-01-21T03:21:16.418Z,99.90
2018-01-21T03:22:20.632Z,99.90
2018-01-21T03:23:24.915Z,99.90
2018-01-21T03:24:29.500Z,99.90
2018-01-21T03:25:34.434Z,99.90
2018-01-21T03:26:38.652Z,99.90
2018-01-21T03:27:42.870Z,99.90
2018-01-21T03:28:47.089Z,99.90
2018-01-21T03:29:51.314Z,99.90
2018-01-21T03:30:55.546Z,99.90
2018-01-21T03:31:59.736Z,99.90
2018-01-21T03:33:03.954Z,99.90
2018-01-21T03:34:08.141Z,99.90
2018-01-21T03:35:12.380Z,99.90
2018-01-21T03:36:16.595Z,99.90
2018-01-21T03:37:20.813Z,99.90
2018-01-21T03:38:25.007Z,99.90
2018-01-21T03:39:29.221Z,99.90
2018-01-21T03:40:33.441Z,99.90
2018-01-21T03:41:37.696Z,99.90
2018-01-21T03:42:42.245Z,99.90
2018-01-21T03:43:46.464Z,99.90
2018-01-21T03:44:50.630Z,99.90
2018-01-21T03:45:54.861Z,99.90
2018-01-21T03:46:59.083Z,99.90
2018-01-21T03:48:03.320Z,99.90
2018-01-21T03:49:07.504Z,99.90
2018-01-21T03:50:11.732Z,99.90
2018-01-21T03:51:15.948Z,99.90
2018-01-21T03:52:20.135Z,99.90
2018-01-21T03:53:24.723Z,99.90
2018-01-21T03:54:29.724Z,99.90
2018-01-21T03:55:33.895Z,99.90
2018-01-21T03:56:38.077Z,99.90
2018-01-21T03:57:42.291Z,99.90
2018-01-21T03:58:46.832Z,99.90
2018-01-21T03:59:51.087Z,99.90
2018-01-21T04:00:55.343Z,99.90
2018-01-21T04:01:59.515Z,99.90
2018-01-21T04:03:03.729Z,99.90
2018-01-21T04:04:08.754Z,99.90
2018-01-21T04:05:13.735Z,99.90
2018-01-21T04:06:18.005Z,99.90
2018-01-21T04:07:22.987Z,99.90
2018-01-21T04:08:27.220Z,99.90
2018-01-21T04:09:31.892Z,99.90
2018-01-21T04:10:36.085Z,99.90
2018-01-21T04:11:41.107Z,99.90
2018-01-21T04:12:46.055Z,99.90
2018-01-21T04:13:50.222Z,99.90
2018-01-21T04:14:54.489Z,99.90
2018-01-21T04:15:58.672Z,99.90
2018-01-21T04:17:03.724Z,99.90
2018-01-21T04:18:07.916Z,99.90
2018-01-21T04:19:12.888Z,99.90
2018-01-21T04:20:17.172Z,99.90
2018-01-21T04:21:21.366Z,99.90
2018-01-21T04:22:26.341Z,99.90
2018-01-21T04:23:30.640Z,99.90
2018-01-21T04:24:34.857Z,99.90
2018-01-21T04:25:39.131Z,99.90
2018-01-21T04:26:43.351Z,99.90
2018-01-21T04:27:47.518Z,99.90
2018-01-21T04:28:51.790Z,99.90
2018-01-21T04:29:56.040Z,99.90
2018-01-21T04:31:00.214Z,99.90
2018-01-21T04:32:04.487Z,99.90
2018-01-21T04:33:09.474Z,99.90
2018-01-21T04:34:13.791Z,99.90
2018-01-21T04:35:18.739Z,99.90
2018-01-21T04:36:22.921Z,99.90
2018-01-21T04:37:27.206Z,99.90
2018-01-21T04:38:31.438Z,99.90
2018-01-21T04:39:35.672Z,99.90
2018-01-21T04:40:39.851Z,99.90
2018-01-21T04:41:44.061Z,99.90
2018-01-21T04:42:48.281Z,99.90
2018-01-21T04:43:52.463Z,99.90
2018-01-21T04:44:56.686Z,99.90
2018-01-21T04:46:00.972Z,99.90
2018-01-21T04:47:05.961Z,99.90
2018-01-21T04:48:10.142Z,99.90
2018-01-21T04:49:14.319Z,99.90
2018-01-21T04:50:19.324Z,99.90
2018-01-21T04:51:23.504Z,99.90
2018-01-21T04:52:27.725Z,99.90
2018-01-21T04:53:31.997Z,99.90
2018-01-21T04:54:36.219Z,99.90
2018-01-21T04:55:40.432Z,99.90
2018-01-21T04:56:44.674Z,99.90
2018-01-21T04:57:49.040Z,99.90
2018-01-21T04:58:53.225Z,99.90
2018-01-21T04:59:57.395Z,99.90
2018-01-21T05:01:01.623Z,99.90
2018-01-21T05:02:05.846Z,99.90
2018-01-21T05:03:10.036Z,99.90
2018-01-21T05:04:14.203Z,99.90
2018-01-21T05:05:18.378Z,99.90
2018-01-21T05:06:23.008Z,99.90
2018-01-21T05:07:27.994Z,99.90
2018-01-21T05:08:32.225Z,99.90
2018-01-21T05:09:36.416Z,99.90
2018-01-21T05:10:40.621Z,99.90
2018-01-21T05:11:44.892Z,99.90
2018-01-21T05:12:49.831Z,99.90
2018-01-21T05:13:54.008Z,99.90
2018-01-21T05:14:58.196Z,99.90
2018-01-21T05:16:02.404Z,99.90
2018-01-21T05:17:06.679Z,99.90
2018-01-21T05:18:10.851Z,99.90
2018-01-21T05:19:15.031Z,99.90
2018-01-21T05:20:19.249Z,99.90
2018-01-21T05:21:23.468Z,99.90
2018-01-21T05:22:27.721Z,99.90
2018-01-21T05:23:32.660Z,99.90
2018-01-21T05:24:36.912Z,99.90
2018-01-21T05:25:41.155Z,99.90
2018-01-21T05:26:46.146Z,99.90
2018-01-21T05:27:50.394Z,99.90
2018-01-21T05:28:54.647Z,99.90
2018-01-21T05:29:58.827Z,99.90
2018-01-21T05:31:04.214Z,99.90
2018-01-21T05:32:08.420Z,99.90
2018-01-21T05:33:12.629Z,99.90
2018-01-21T05:34:16.806Z,99.90
2018-01-21T05:35:21.033Z,99.90
2018-01-21T05:36:25.236Z,99.90
2018-01-21T05:37:29.539Z,99.90
2018-01-21T05:38:34.519Z,99.90
2018-01-21T05:39:38.699Z,99.90
2018-01-21T05:40:42.981Z,99.90
2018-01-21T05:41:47.932Z,99.90
2018-01-21T05:42:52.244Z,99.90
2018-01-21T05:43:56.424Z,99.90
2018-01-21T05:45:00.613Z,99.90
2018-01-21T05:46:04.793Z,99.90
2018-01-21T05:47:09.009Z,99.90
2018-01-21T05:48:13.568Z,99.90
2018-01-21T05:49:17.824Z,99.90
2018-01-21T05:50:22.128Z,99.90
2018-01-21T05:51:26.328Z,99.90
2018-01-21T05:52:31.259Z,99.90
2018-01-21T05:53:35.766Z,99.90
2018-01-21T05:54:40.757Z,99.90
2018-01-21T05:55:44.942Z,99.90
2018-01-21T05:56:49.158Z,99.90
2018-01-21T05:57:53.326Z,99.90
2018-01-21T05:58:58.684Z,99.90
2018-01-21T06:00:02.978Z,99.90
2018-01-21T06:01:07.911Z,99.90
2018-01-21T06:02:12.189Z,99.90
2018-01-21T06:03:16.359Z,99.90
2018-01-21T06:04:20.582Z,99.90
2018-01-21T06:05:24.806Z,99.90
2018-01-21T06:06:29.051Z,99.90
2018-01-21T06:07:34.064Z,99.90
2018-01-21T06:08:38.283Z,99.90
2018-01-21T06:09:42.506Z,99.90
2018-01-21T06:10:47.513Z,99.90
2018-01-21T06:11:51.741Z,99.90
2018-01-21T06:12:55.945Z,99.90
2018-01-21T06:14:00.952Z,99.90
2018-01-21T06:15:05.213Z,99.90
2018-01-21T06:16:09.391Z,99.90
2018-01-21T06:17:13.593Z,99.90
2018-01-21T06:18:17.787Z,99.90
2018-01-21T06:19:22.063Z,99.90
2018-01-21T06:20:26.265Z,99.90
2018-01-21T06:21:30.591Z,99.90
2018-01-21T06:22:34.810Z,99.90
2018-01-21T06:23:39.114Z,99.90
2018-01-21T06:24:43.375Z,99.90
2018-01-21T06:25:47.588Z,99.90
2018-01-21T06:26:51.793Z,99.90
2018-01-21T06:27:56.009Z,99.90
2018-01-21T06:29:00.222Z,99.90
2018-01-21T06:30:04.419Z,99.90
2018-01-21T06:31:08.586Z,99.90
2018-01-21T06:32:12.804Z,99.90
2018-01-21T06:33:17.014Z,99.90
2018-01-21T06:34:21.253Z,99.90
2018-01-21T06:35:25.434Z,99.90
2018-01-21T06:36:29.650Z,99.90
2018-01-21T06:37:34.226Z,99.90
2018-01-21T06:38:39.205Z,99.90
2018-01-21T06:39:43.418Z,99.90
2018-01-21T06:40:47.591Z,99.90
2018-01-21T06:41:52.540Z,99.90
2018-01-21T06:42:56.805Z,99.90
2018-01-21T06:44:01.038Z,99.90
2018-01-21T06:45:06.016Z,99.90
2018-01-21T06:46:10.237Z,99.90
2018-01-21T06:47:14.424Z,99.90
2018-01-21T06:48:18.643Z,99.90
2018-01-21T06:49:22.854Z,99.90
2018-01-21T06:50:27.147Z,99.90
2018-01-21T06:51:31.381Z,99.90
2018-01-21T06:52:35.653Z,99.90
2018-01-21T06:53:40.647Z,99.90
2018-01-21T06:54:44.828Z,99.90
2018-01-21T06:55:49.037Z,99.90
2018-01-21T06:56:53.250Z,99.90
2018-01-21T06:57:57.645Z,99.90
2018-01-21T06:59:01.863Z,99.90
2018-01-21T07:00:06.094Z,99.90
2018-01-21T07:01:10.310Z,99.90
2018-01-21T07:02:14.533Z,99.90
2018-01-21T07:03:18.711Z,99.90
2018-01-21T07:04:22.947Z,99.90
2018-01-21T07:05:27.166Z,99.90
2018-01-21T07:06:31.386Z,99.90
2018-01-21T07:07:35.597Z,99.90
2018-01-21T07:08:39.866Z,99.90
2018-01-21T07:09:44.061Z,99.90
2018-01-21T07:10:48.235Z,99.90
2018-01-21T07:11:52.573Z,99.90
2018-01-21T07:12:57.548Z,99.90
2018-01-21T07:14:01.772Z,99.90
2018-01-21T07:15:05.985Z,99.90
2018-01-21T07:16:10.156Z,99.90
2018-01-21T07:17:14.460Z,99.90
2018-01-21T07:18:18.880Z,99.90
2018-01-21T07:19:23.145Z,99.90
2018-01-21T07:20:27.332Z,99.90
2018-01-21T07:21:31.527Z,99.90
2018-01-21T07:22:35.729Z,99.90
2018-01-21T07:23:39.941Z,99.90
2018-01-21T07:24:44.202Z,99.90
2018-01-21T07:25:48.389Z,99.90
2018-01-21T07:26:52.593Z,99.90
2018-01-21T07:27:56.819Z,99.90
2018-01-21T07:29:01.005Z,99.90
2018-01-21T07:30:05.281Z,99.90
2018-01-21T07:31:09.462Z,99.90
2018-01-21T07:32:13.820Z,99.90
2018-01-21T07:33:18.038Z,99.90
2018-01-21T07:34:22.297Z,99.90
2018-01-21T07:35:26.492Z,99.90
2018-01-21T07:36:30.677Z,99.90
2018-01-21T07:37:34.885Z,99.90
2018-01-21T07:38:39.088Z,99.90
2018-01-21T07:39:43.297Z,99.90
2018-01-21T07:40:47.532Z,99.90
2018-01-21T07:41:51.703Z,99.90
2018-01-21T07:42:56.686Z,99.90
2018-01-21T07:44:00.864Z,99.90
2018-01-21T07:45:05.168Z,99.90
2018-01-21T07:46:09.581Z,99.90
2018-01-21T07:47:13.835Z,99.90
2018-01-21T07:48:19.532Z,99.90
2018-01-21T07:49:23.705Z,99.90
2018-01-21T07:50:27.967Z,99.90
2018-01-21T07:51:32.601Z,99.90
2018-01-21T07:52:36.780Z,99.90
2018-01-21T07:53:41.082Z,99.90
2018-01-21T07:54:46.037Z,99.90
2018-01-21T07:55:50.241Z,99.90
2018-01-21T07:56:54.483Z,99.90
2018-01-21T07:57:58.663Z,99.90
2018-01-21T07:59:02.876Z,99.90
2018-01-21T08:00:07.056Z,99.90
2018-01-21T08:01:11.987Z,99.90
2018-01-21T08:02:16.980Z,99.90
2018-01-21T08:03:21.157Z,99.90
2018-01-21T08:04:25.369Z,99.90
2018-01-21T08:05:29.585Z,99.90
2018-01-21T08:06:33.760Z,99.90
2018-01-21T08:07:38.969Z,99.90
2018-01-21T08:08:43.288Z,99.90
2018-01-21T08:09:47.560Z,99.90
2018-01-21T08:10:51.757Z,99.90
2018-01-21T08:11:55.938Z,99.90
2018-01-21T08:13:00.926Z,99.90
2018-01-21T08:14:05.203Z,99.90
2018-01-21T08:15:09.437Z,99.90
2018-01-21T08:16:13.606Z,99.90
2018-01-21T08:17:18.589Z,99.90
2018-01-21T08:18:22.768Z,99.90
2018-01-21T08:19:27.065Z,99.90
2018-01-21T08:20:32.092Z,99.90
2018-01-21T08:21:36.305Z,99.90
2018-01-21T08:22:40.487Z,99.90
2018-01-21T08:23:44.689Z,99.90
2018-01-21T08:24:48.924Z,99.90
2018-01-21T08:25:53.963Z,99.90
2018-01-21T08:26:58.139Z,99.90
2018-01-21T08:28:02.336Z,99.90
2018-01-21T08:29:06.516Z,99.90
2018-01-21T08:30:11.129Z,99.90
2018-01-21T08:31:15.334Z,99.90
2018-01-21T08:32:19.537Z,99.90
2018-01-21T08:33:23.719Z,99.90
2018-01-21T08:34:33.570Z,99.90
2018-01-21T08:35:44.201Z,99.90
2018-01-21T08:36:53.981Z,99.90
2018-01-21T08:38:04.524Z,99.90
2018-01-21T08:39:14.343Z,99.90
2018-01-21T08:40:23.988Z,99.90
2018-01-21T08:41:31.846Z,99.90
2018-01-21T08:42:37.435Z,99.90
2018-01-21T08:43:41.643Z,99.90
2018-01-21T08:44:45.853Z,99.90
2018-01-21T08:45:50.069Z,99.90
2018-01-21T08:46:54.333Z,99.90
2018-01-21T08:47:58.515Z,99.90
2018-01-21T08:49:03.573Z,99.90
2018-01-21T08:50:07.743Z,99.90
2018-01-21T08:51:11.941Z,99.90
2018-01-21T08:52:16.142Z,99.90
2018-01-21T08:53:20.536Z,99.90
2018-01-21T08:54:24.716Z,99.90
2018-01-21T08:55:29.659Z,99.90
2018-01-21T08:56:33.893Z,99.90
2018-01-21T08:57:38.069Z,99.90
2018-01-21T08:58:42.386Z,99.90
2018-01-21T08:59:46.577Z,99.90
2018-01-21T09:00:51.512Z,99.90
2018-01-21T09:01:56.456Z,99.90
2018-01-21T09:03:00.670Z,99.90
2018-01-21T09:04:05.437Z,99.90
2018-01-21T09:05:09.740Z,99.90
2018-01-21T09:06:13.985Z,99.90
2018-01-21T09:07:18.961Z,99.90
2018-01-21T09:08:23.177Z,99.90
2018-01-21T09:09:27.448Z,99.90
2018-01-21T09:10:31.705Z,99.90
2018-01-21T09:11:35.871Z,99.90
2018-01-21T09:12:40.917Z,99.90
2018-01-21T09:13:45.129Z,99.90
2018-01-21T09:14:49.528Z,99.90
2018-01-21T09:15:53.858Z,99.90
2018-01-21T09:16:58.077Z,99.90
2018-01-21T09:18:02.273Z,99.90
2018-01-21T09:19:06.495Z,99.90
2018-01-21T09:20:10.761Z,99.90
2018-01-21T09:21:14.935Z,99.90
2018-01-21T09:22:19.113Z,99.90
2018-01-21T09:23:23.328Z,99.90
2018-01-21T09:24:27.542Z,99.90
2018-01-21T09:25:31.763Z,99.90
2018-01-21T09:26:35.945Z,99.90
2018-01-21T09:27:40.914Z,99.90
2018-01-21T09:28:45.145Z,99.90
2018-01-21T09:29:50.840Z,99.90
2018-01-21T09:30:55.405Z,99.90
2018-01-21T09:31:59.579Z,99.90
2018-01-21T09:33:03.891Z,99.90
2018-01-21T09:34:08.089Z,99.90
2018-01-21T09:35:13.061Z,99.90
2018-01-21T09:36:17.312Z,99.90
2018-01-21T09:37:22.285Z,99.90
2018-01-21T09:38:26.477Z,99.90
2018-01-21T09:39:30.681Z,99.90
2018-01-21T09:40:34.889Z,99.90
2018-01-21T09:41:39.129Z,99.90
2018-01-21T09:42:43.346Z,99.90
2018-01-21T09:43:47.570Z,99.90
2018-01-21T09:44:52.153Z,99.90
2018-01-21T09:45:56.336Z,99.90
2018-01-21T09:47:01.317Z,99.90
2018-01-21T09:48:05.520Z,99.90
2018-01-21T09:49:09.700Z,99.90
2018-01-21T09:50:13.927Z,99.90
2018-01-21T09:51:18.125Z,99.90
2018-01-21T09:52:22.340Z,99.90
2018-01-21T09:53:26.591Z,99.90
2018-01-21T09:54:30.834Z,99.90
2018-01-21T09:55:35.843Z,99.90
2018-01-21T09:56:40.015Z,99.90
2018-01-21T09:57:44.212Z,99.90
2018-01-21T09:58:48.416Z,99.90
2018-01-21T09:59:52.633Z,99.90
2018-01-21T10:00:57.258Z,99.90
2018-01-21T10:02:01.465Z,99.90
2018-01-21T10:03:05.663Z,99.90
2018-01-21T10:04:09.886Z,99.90
2018-01-21T10:05:14.166Z,99.90
2018-01-21T10:06:19.644Z,99.90
2018-01-21T10:07:23.884Z,99.90
2018-01-21T10:08:28.064Z,99.90
2018-01-21T10:09:32.277Z,99.90
2018-01-21T10:10:36.545Z,99.90
2018-01-21T10:11:40.801Z,99.90
2018-01-21T10:12:44.971Z,99.90
2018-01-21T10:13:49.271Z,99.90
2018-01-21T10:14:53.528Z,99.90
2018-01-21T10:15:57.728Z,99.90
2018-01-21T10:17:02.723Z,99.90
2018-01-21T10:18:06.925Z,99.90
2018-01-21T10:19:11.149Z,99.90
2018-01-21T10:20:15.407Z,99.90
2018-01-21T10:21:19.630Z,99.90
2018-01-21T10:22:23.846Z,99.90
2018-01-21T10:23:28.052Z,99.90
2018-01-21T10:24:32.274Z,99.90
2018-01-21T10:25:36.462Z,99.90
2018-01-21T10:26:40.678Z,99.90
2018-01-21T10:27:44.977Z,99.90
2018-01-21T10:28:49.156Z,99.90
2018-01-21T10:29:53.379Z,99.90
2018-01-21T10:30:58.407Z,99.90
2018-01-21T10:32:03.414Z,99.90
2018-01-21T10:33:08.027Z,99.90
2018-01-21T10:34:12.211Z,99.90
2018-01-21T10:35:16.429Z,99.90
2018-01-21T10:36:20.638Z,99.90
2018-01-21T10:37:24.917Z,99.90
2018-01-21T10:38:29.902Z,99.90
2018-01-21T10:39:34.123Z,99.90
2018-01-21T10:40:38.330Z,99.90
2018-01-21T10:41:42.600Z,99.90
2018-01-21T10:42:46.773Z,99.90
2018-01-21T10:43:51.014Z,99.90
2018-01-21T10:44:55.190Z,99.90
2018-01-21T10:46:00.185Z,99.90
2018-01-21T10:47:04.367Z,99.90
2018-01-21T10:48:08.548Z,99.90
2018-01-21T10:49:12.877Z,99.90
2018-01-21T10:50:17.102Z,99.90
2018-01-21T10:51:21.283Z,99.90
2018-01-21T10:52:26.253Z,99.90
2018-01-21T10:53:30.453Z,99.90
2018-01-21T10:54:34.736Z,99.90
2018-01-21T10:55:39.741Z,99.90
2018-01-21T10:56:43.977Z,99.90
2018-01-21T10:57:48.194Z,99.90
2018-01-21T10:58:52.385Z,99.90
2018-01-21T10:59:56.609Z,99.90
2018-01-21T11:01:02.467Z,99.90
2018-01-21T11:02:06.675Z,99.90
2018-01-21T11:03:10.889Z,99.90
2018-01-21T11:04:15.206Z,99.90
2018-01-21T11:05:19.416Z,99.90
2018-01-21T11:06:23.635Z,99.90
2018-01-21T11:07:27.841Z,99.90
2018-01-21T11:08:32.049Z,99.90
2018-01-21T11:09:36.339Z,99.90
2018-01-21T11:10:41.388Z,99.90
2018-01-21T11:11:45.598Z,99.90
2018-01-21T11:12:49.826Z,99.90
2018-01-21T11:13:54.107Z,99.90
2018-01-21T11:14:59.097Z,99.90
2018-01-21T11:16:03.267Z,99.90
2018-01-21T11:17:07.432Z,99.90
2018-01-21T11:18:11.646Z,99.90
2018-01-21T11:19:17.366Z,99.90
2018-01-21T11:20:21.597Z,99.90
2018-01-21T11:21:25.772Z,99.90
2018-01-21T11:22:29.930Z,99.90
2018-01-21T11:23:34.115Z,99.90
2018-01-21T11:24:38.344Z,99.90
2018-01-21T11:25:42.558Z,99.90
2018-01-21T11:26:46.756Z,99.90
2018-01-21T11:27:50.920Z,99.90
2018-01-21T11:28:55.178Z,99.90
2018-01-21T11:29:59.352Z,99.90
2018-01-21T11:31:03.615Z,99.90
2018-01-21T11:32:07.826Z,99.90
2018-01-21T11:33:12.811Z,99.90
2018-01-21T11:34:17.060Z,99.90
2018-01-21T11:35:21.236Z,99.90
2018-01-21T11:36:25.920Z,99.90
2018-01-21T11:37:30.148Z,99.90
2018-01-21T11:38:34.333Z,99.90
2018-01-21T11:39:38.617Z,99.90
2018-01-21T11:40:42.833Z,99.90
2018-01-21T11:41:47.137Z,99.90
2018-01-21T11:42:51.349Z,99.90
2018-01-21T11:43:56.331Z,99.90
2018-01-21T11:45:00.636Z,99.90
2018-01-21T11:46:04.889Z,99.90
2018-01-21T11:47:10.800Z,99.90
2018-01-21T11:48:13.335Z,99.90
2018-01-21T11:49:18.310Z,99.90
2018-01-21T11:50:22.567Z,99.90
2018-01-21T11:51:27.561Z,99.90
2018-01-21T11:52:32.085Z,99.90
2018-01-21T11:53:36.265Z,99.90
2018-01-21T11:54:40.457Z,99.90
2018-01-21T11:55:45.398Z,99.90
2018-01-21T11:56:49.598Z,99.90
2018-01-21T11:57:53.817Z,99.90
2018-01-21T11:58:58.889Z,99.90
2018-01-21T12:00:03.107Z,99.90
2018-01-21T12:01:08.055Z,99.90
2018-01-21T12:02:12.258Z,99.90
2018-01-21T12:03:16.488Z,99.90
2018-01-21T12:04:20.690Z,99.90
2018-01-21T12:05:26.467Z,99.90
2018-01-21T12:06:30.634Z,99.90
2018-01-21T12:07:34.858Z,99.90
2018-01-21T12:08:39.155Z,99.90
2018-01-21T12:09:43.370Z,99.90
2018-01-21T12:10:47.535Z,99.90
2018-01-21T12:11:51.742Z,99.90
2018-01-21T12:12:55.965Z,99.90
2018-01-21T12:14:00.204Z,99.90
2018-01-21T12:15:05.887Z,99.90
2018-01-21T12:16:10.140Z,99.90
2018-01-21T12:17:14.382Z,99.90
2018-01-21T12:18:18.540Z,99.90
2018-01-21T12:19:22.803Z,99.90
2018-01-21T12:20:27.073Z,99.90
2018-01-21T12:21:31.260Z,99.90
2018-01-21T12:22:35.474Z,99.90
2018-01-21T12:23:39.683Z,99.90
2018-01-21T12:24:43.871Z,99.90
2018-01-21T12:25:48.079Z,99.90
2018-01-21T12:26:52.296Z,99.90
2018-01-21T12:27:56.463Z,99.90
2018-01-21T12:29:00.665Z,99.90
2018-01-21T12:30:04.955Z,99.90
2018-01-21T12:31:09.146Z,99.90
2018-01-21T12:32:14.156Z,99.90
2018-01-21T12:33:18.499Z,99.90
2018-01-21T12:34:22.722Z,99.90
2018-01-21T12:35:26.925Z,99.90
2018-01-21T12:36:31.100Z,99.90
2018-01-21T12:37:35.455Z,99.90
2018-01-21T12:38:39.852Z,99.90
2018-01-21T12:39:44.870Z,99.90
2018-01-21T12:40:49.033Z,99.90
2018-01-21T12:41:53.233Z,99.90
2018-01-21T12:42:57.533Z,99.30
2018-01-21T12:44:02.045Z,98.70
2018-01-21T12:45:06.282Z,98.30
2018-01-21T12:46:10.472Z,98.40
2018-01-21T12:47:14.670Z,98.30
2018-01-21T12:48:19.613Z,98.40
2018-01-21T12:49:23.883Z,98.40
2018-01-21T12:50:28.089Z,98.40
2018-01-21T12:51:32.344Z,98.50
2018-01-21T12:52:36.655Z,98.00
2018-01-21T12:53:40.953Z,97.80
2018-01-21T12:54:46.297Z,97.50
2018-01-21T12:55:51.438Z,95.50
2018-01-21T12:56:55.670Z,95.50
2018-01-21T12:57:59.859Z,94.90
2018-01-21T12:59:04.040Z,94.40
2018-01-21T13:00:09.395Z,94.60
2018-01-21T13:01:14.332Z,94.20
2018-01-21T13:02:18.545Z,94.20
2018-01-21T13:03:22.732Z,94.10
2018-01-21T13:04:27.710Z,94.20
2018-01-21T13:05:31.936Z,94.30
2018-01-21T13:06:36.095Z,94.00
2018-01-21T13:07:41.074Z,92.70
2018-01-21T13:08:45.289Z,92.70
2018-01-21T13:09:49.497Z,92.70
2018-01-21T13:10:54.020Z,92.40
2018-01-21T13:11:58.220Z,91.60
2018-01-21T13:13:02.421Z,91.10
2018-01-21T13:14:06.635Z,90.40
2018-01-21T13:15:10.838Z,89.00
2018-01-21T13:16:15.127Z,89.60
2018-01-21T13:17:19.336Z,90.00
2018-01-21T13:18:23.503Z,90.10
2018-01-21T13:19:27.692Z,90.10
2018-01-21T13:20:31.893Z,89.20
2018-01-21T13:21:36.100Z,88.00
2018-01-21T13:22:40.267Z,86.60
2018-01-21T13:23:45.208Z,86.60
2018-01-21T13:24:50.179Z,86.60
2018-01-21T13:25:54.347Z,86.50
2018-01-21T13:26:59.284Z,87.80
2018-01-21T13:28:03.579Z,87.80
2018-01-21T13:29:08.557Z,87.40
2018-01-21T13:30:13.134Z,87.40
2018-01-21T13:31:18.166Z,84.90
2018-01-21T13:32:22.485Z,84.80
2018-01-21T13:33:26.681Z,84.30
2018-01-21T13:34:31.658Z,84.80
2018-01-21T13:35:35.856Z,84.80
2018-01-21T13:36:40.020Z,84.80
2018-01-21T13:37:44.994Z,86.20
2018-01-21T13:38:49.189Z,86.20
2018-01-21T13:39:53.393Z,87.20
2018-01-21T13:40:57.701Z,87.40
2018-01-21T13:42:02.670Z,88.10
2018-01-21T13:43:06.857Z,88.10
2018-01-21T13:44:12.114Z,88.90
2018-01-21T13:45:16.329Z,89.40
2018-01-21T13:46:20.548Z,89.60
2018-01-21T13:47:24.724Z,90.00
2018-01-21T13:48:28.898Z,90.10
2018-01-21T13:49:33.835Z,90.40